• Join FlightAware (Why Join?)
  • Login
  • US Flag 
06:25PM EDT


 

Airport Tracker/Info


-or-


 

Live Flight TrackerFlight Track Log ✈ DAL268 ✈ 05-Oct-2013 ✈ KSFO - KJFK

Flight Track Log - Related Links

Times and Time Zones

All times are in EDT time to prevent confusion due to time zone crossing. See the DAL268 flight status page for this flight to view local times or setup timezone preferences in your user account.

Time Position Orientation Groundspeed Altitude Reporting Facility
EDT Latitude Longitude Course Direction KTS MPH feet Rate Location/Type
02:45PM 37.6360 -122.3620 90° East 600  Level FlightAware
02:45PM 37.6420 -122.3560 38° Northeast 166 191 1,100 2,160 Climbing FlightAware
02:45PM 37.6520 -122.3410 50° Northeast 184 212 1,700 1,560 Climbing FlightAware
02:45PM 37.6580 -122.3330 47° Northeast 199 229 1,900 1,680 Climbing FlightAware
02:46PM 37.6750 -122.3100 47° Northeast 224 258 2,700 1,980 Climbing FlightAware
02:46PM 37.6910 -122.2890 46° Northeast 243 280 3,400 2,520 Climbing FlightAware
02:46PM 37.7040 -122.2750 40° Northeast 242 278 4,200 3,300 Climbing FlightAware
02:46PM 37.7080 -122.2710 38° Northeast 242 278 4,500 2,400 Climbing FlightAware
02:47PM 37.7160 -122.2670 22° Northeast 244 281 4,800 2,760 Climbing FlightAware
02:47PM 37.7400 -122.2570 18° North 245 282 5,900 2,700 Climbing FlightAware
02:47PM 37.7570 -122.2490 20° North 257 296 6,400 1,800 Climbing FlightAware
02:47PM 37.7620 -122.2440 38° Northeast 264 304 6,500 1,800 Climbing FlightAware
02:48PM 37.7870 -122.2200 37° Northeast 283 326 7,300 2,640 Climbing FlightAware
02:48PM 37.8080 -122.2000 37° Northeast 274 315 8,500 3,000 Climbing FlightAware
02:48PM 37.8280 -122.1810 37° Northeast 278 320 9,300 2,040 Climbing FlightAware
02:49PM 37.8420 -122.1660 40° Northeast 287 330 9,700 1,320 Climbing FlightAware
02:49PM 37.8760 -122.1320 38° Northeast 311 358 10,300 1,680 Climbing FlightAware
02:50PM 37.9170 -122.0900 39° Northeast 317 365 11,700 2,160 Climbing FlightAware
02:50PM 37.9630 -122.0430 39° Northeast 330 380 13,000 2,100 Climbing FlightAware
02:51PM 37.9990 -122.0070 38° Northeast 335 386 14,000 1,980 Climbing FlightAware
02:51PM 38.0440 -121.9610 39° Northeast 341 392 15,300 1,680 Climbing FlightAware
02:52PM 38.0870 -121.9190 38° Northeast 358 412 16,000 1,140 Climbing FlightAware
02:53PM 38.1420 -121.8630 39° Northeast 385 443 16,700 1,140 Climbing FlightAware
02:53PM 38.1870 -121.8160 39° Northeast 400 460 17,400 1,380 Climbing FlightAware
02:54PM 38.2400 -121.7610 39° Northeast 410 472 18,300 1,620 Climbing FlightAware
02:54PM 38.3020 -121.6980 39° Northeast 417 480 19,500 1,620 Climbing FlightAware
02:55PM 38.3560 -121.6430 39° Northeast 422 486 20,400 1,560 Climbing FlightAware
02:56PM 38.4120 -121.5850 39° Northeast 429 494 21,400 1,620 Climbing FlightAware
02:56PM 38.4600 -121.5230 45° Northeast 432 497 22,300 1,440 Climbing FlightAware
02:57PM 38.5040 -121.4510 52° Northeast 438 504 23,100 1,200 Climbing FlightAware
02:57PM 38.5470 -121.3750 54° Northeast 445 512 23,800 1,200 Climbing FlightAware
02:58PM 38.5870 -121.3070 53° Northeast 449 517 24,500 1,320 Climbing FlightAware
02:59PM 38.6330 -121.2270 54° Northeast 454 522 25,400 1,380 Climbing FlightAware
02:59PM 38.6760 -121.1520 54° Northeast 456 525 26,200 1,260 Climbing FlightAware
03:00PM 38.7220 -121.0730 53° Northeast 461 531 26,900 1,140 Climbing FlightAware
03:00PM 38.7630 -121.0030 53° Northeast 467 537 27,500 1,080 Climbing FlightAware
03:01PM 38.8060 -120.9270 54° Northeast 472 543 28,100 1,140 Climbing FlightAware
03:01PM 38.8560 -120.8410 53° Northeast 474 545 28,900 1,320 Climbing FlightAware
03:02PM 38.9030 -120.7600 53° Northeast 470 541 29,800 1,620 Climbing FlightAware
03:03PM 38.9460 -120.6850 54° Northeast 464 534 30,800 1,620 Climbing FlightAware
03:03PM 38.9860 -120.6150 54° Northeast 459 528 31,600 1,380 Climbing FlightAware
03:04PM 39.0320 -120.5350 53° Northeast 457 526 32,400 1,320 Climbing FlightAware
03:04PM 39.0770 -120.4580 53° Northeast 454 522 33,200 1,320 Climbing FlightAware
03:05PM 39.1220 -120.3800 53° Northeast 451 519 34,000 1,320 Climbing FlightAware
03:05PM 39.1580 -120.3150 54° Northeast 446 513 34,700 1,200 Climbing FlightAware
03:06PM 39.2070 -120.2290 54° Northeast 446 513 35,400 1,020 Climbing FlightAware
03:07PM 39.2490 -120.1540 54° Northeast 446 513 36,000 960 Climbing FlightAware
03:07PM 39.2820 -120.0770 61° Northeast 446 513 36,500 840 Climbing FlightAware
03:08PM 39.3130 -120.0030 62° Northeast 446 513 36,900 420 Climbing FlightAware
03:08PM 39.3460 -119.9290 60° Northeast 446 513 37,000 60 Climbing FlightAware
03:09PM 39.3830 -119.8460 60° Northeast 444 511 37,000  Level FlightAware
03:10PM 39.4200 -119.7630 60° Northeast 446 513 37,000  Level FlightAware
03:10PM 39.4560 -119.6820 60° Northeast 448 516 37,000  Level FlightAware
03:11PM 39.4910 -119.6030 60° Northeast 450 518 37,000  Level FlightAware
03:11PM 39.5200 -119.5360 61° Northeast 451 519 37,000  Level FlightAware
03:12PM 39.5660 -119.4270 61° Northeast 452 520 37,000  Level FlightAware
03:13PM 39.6030 -119.3380 62° Northeast 453 521 37,000  Level FlightAware
03:13PM 39.6370 -119.2590 61° Northeast 453 521 37,000  Level FlightAware
03:14PM 39.6740 -119.1700 62° Northeast 453 521 37,000  Level FlightAware
03:14PM 39.7100 -119.0860 61° Northeast 452 520 37,000  Level FlightAware
03:15PM 39.7460 -118.9990 62° Northeast 451 519 37,000  Level FlightAware
03:15PM 39.7800 -118.9170 62° Northeast 451 519 37,000  Level FlightAware
03:16PM 39.8150 -118.8330 62° Northeast 451 519 37,000  Level FlightAware
03:17PM 39.8480 -118.7560 61° Northeast 451 519 37,000  Level FlightAware
03:17PM 39.8830 -118.6720 61° Northeast 450 518 37,000  Level FlightAware
03:18PM 39.9180 -118.5870 62° Northeast 450 518 37,000  Level FlightAware
03:18PM 39.9490 -118.5110 62° Northeast 450 518 37,000  Level FlightAware
03:19PM 39.9860 -118.4210 62° Northeast 450 518 37,000  Level FlightAware
03:20PM 40.0180 -118.3430 62° Northeast 450 518 37,000  Level FlightAware
03:20PM 40.0520 -118.2600 62° Northeast 448 516 37,000  Level FlightAware
03:21PM 40.0900 -118.1660 62° Northeast 447 514 37,000  Level FlightAware
03:21PM 40.1260 -118.0800 61° Northeast 446 513 37,000  Level FlightAware
03:22PM 40.1560 -118.0040 63° Northeast 446 513 37,000  Level FlightAware
03:22PM 40.1910 -117.9180 62° Northeast 445 512 37,000  Level FlightAware
03:23PM 40.2250 -117.8340 62° Northeast 445 512 37,000  Level FlightAware
03:24PM 40.2720 -117.7170 62° Northeast 444 511 37,000  Level FlightAware
03:25PM 40.3030 -117.6420 62° Northeast 444 511 37,000  Level FlightAware
03:25PM 40.3320 -117.5690 62° Northeast 444 511 37,000  Level FlightAware
03:26PM 40.3600 -117.5000 62° Northeast 444 511 37,000  Level FlightAware
03:26PM 40.3910 -117.4230 62° Northeast 444 511 37,000  Level FlightAware
03:27PM 40.4210 -117.3500 62° Northeast 444 511 37,000  Level FlightAware
03:28PM 40.4500 -117.2770 62° Northeast 444 511 37,000  Level FlightAware
03:28PM 40.4800 -117.2050 61° Northeast 444 511 37,000  Level FlightAware
03:29PM 40.5090 -117.1320 62° Northeast 444 511 37,000  Level FlightAware
03:29PM 40.5390 -117.0590 62° Northeast 444 511 37,000  Level FlightAware
03:30PM 40.5680 -116.9850 63° Northeast 444 511 37,000  Level FlightAware
03:31PM 40.5990 -116.9100 61° Northeast 444 511 37,000  Level FlightAware
03:31PM 40.6280 -116.8370 62° Northeast 444 511 37,000  Level FlightAware
03:32PM 40.6580 -116.7640 62° Northeast 444 511 37,000  Level FlightAware
03:32PM 40.6870 -116.6910 62° Northeast 444 511 37,000  Level FlightAware
03:33PM 40.7170 -116.6180 62° Northeast 444 511 37,000  Level FlightAware
03:34PM 40.8106 -116.3422 62° Northeast 436 502 37,000  Level Salt Lake Center
03:35PM 40.8631 -116.2067 63° Northeast 434 499 37,000  Level Salt Lake Center
03:40PM 41.1620 -115.4130 63° Northeast 433 498 37,000  Level FlightAware
03:41PM 41.1890 -115.3400 64° Northeast 432 497 37,000  Level FlightAware
03:41PM 41.2210 -115.2540 64° Northeast 432 497 37,000  Level FlightAware
03:42PM 41.2530 -115.1660 64° Northeast 432 497 37,000  Level FlightAware
03:42PM 41.2830 -115.0860 63° Northeast 431 496 37,000  Level FlightAware
03:43PM 41.3150 -114.9990 64° Northeast 431 496 37,000  Level FlightAware
03:44PM 41.3460 -114.9140 64° Northeast 431 496 37,000  Level FlightAware
03:44PM 41.3830 -114.8120 64° Northeast 431 496 37,000  Level FlightAware
03:45PM 41.4100 -114.7370 64° Northeast 431 496 37,000  Level FlightAware
03:46PM 41.4370 -114.6640 64° Northeast 431 496 37,000  Level FlightAware
03:46PM 41.4640 -114.5890 64° Northeast 431 496 37,000  Level FlightAware
03:47PM 41.4910 -114.5150 64° Northeast 431 496 37,000  Level FlightAware
03:47PM 41.5430 -114.3660 65° Northeast 427 491 37,000  Level FlightAware
03:48PM 41.5720 -114.2850 64° Northeast 426 490 37,000  Level FlightAware
03:49PM 41.6030 -114.2020 63° Northeast 426 490 37,000  Level FlightAware
03:49PM 41.6360 -114.1060 65° Northeast 424 488 37,000  Level FlightAware
03:50PM 41.6670 -114.0190 64° Northeast 424 488 37,000  Level FlightAware
03:51PM 41.6970 -113.9340 65° Northeast 425 489 37,000  Level FlightAware
03:51PM 41.7270 -113.8470 65° Northeast 425 489 37,000  Level FlightAware
03:52PM 41.7540 -113.7700 65° Northeast 425 489 37,000  Level FlightAware
03:52PM 41.7820 -113.6910 65° Northeast 425 489 37,000  Level FlightAware
03:53PM 41.8120 -113.6050 65° Northeast 425 489 37,000  Level FlightAware
03:53PM 41.8440 -113.5140 65° Northeast 426 490 37,000  Level FlightAware
03:54PM 41.8730 -113.4280 66° East 426 490 37,000  Level FlightAware
03:55PM 41.9000 -113.3510 65° Northeast 426 490 37,000  Level FlightAware
03:55PM 41.9290 -113.2660 65° Northeast 427 491 37,000  Level FlightAware
03:56PM 41.9560 -113.1880 65° Northeast 426 490 37,000  Level FlightAware
03:56PM 41.9850 -113.1030 65° Northeast 426 490 37,000  Level FlightAware
03:57PM 42.0140 -113.0200 65° Northeast 425 489 37,000  Level FlightAware
03:57PM 42.0430 -112.9350 65° Northeast 426 490 37,000  Level FlightAware
03:58PM 42.0730 -112.8460 66° East 426 490 37,000  Level FlightAware
03:59PM 42.1010 -112.7610 66° East 425 489 37,000  Level FlightAware
03:59PM 42.1360 -112.6600 65° Northeast 424 488 37,000  Level FlightAware
04:00PM 42.1750 -112.5430 66° East 424 488 37,000  Level FlightAware
04:01PM 42.2020 -112.4630 65° Northeast 425 489 37,000  Level FlightAware
04:01PM 42.2330 -112.3700 66° East 426 490 37,000  Level FlightAware
04:02PM 42.2600 -112.2890 66° East 426 490 37,000  Level FlightAware
04:03PM 42.2870 -112.2050 66° East 424 488 37,000  Level FlightAware
04:03PM 42.3150 -112.1200 66° East 424 488 37,000  Level FlightAware
04:04PM 42.3460 -112.0320 64° Northeast 424 488 37,000  Level FlightAware
04:04PM 42.3710 -111.9580 65° Northeast 424 488 37,000  Level FlightAware
04:05PM 42.3970 -111.8820 65° Northeast 424 488 37,000  Level FlightAware
04:06PM 42.4230 -111.8060 65° Northeast 424 488 37,000  Level FlightAware
04:06PM 42.4490 -111.7330 64° Northeast 424 488 37,000  Level FlightAware
04:07PM 42.4740 -111.6590 65° Northeast 424 488 37,000  Level FlightAware
04:07PM 42.5210 -111.4900 69° East 425 489 37,000  Level FlightAware
04:08PM 42.5530 -111.3910 66° East 426 490 37,000  Level FlightAware
04:09PM 42.5780 -111.3140 66° East 426 490 37,000  Level FlightAware
04:09PM 42.6030 -111.2370 66° East 426 490 37,000  Level FlightAware
04:10PM 42.6290 -111.1580 66° East 426 490 37,000  Level FlightAware
04:11PM 42.6640 -111.0520 66° East 426 490 37,000  Level FlightAware
04:11PM 42.6880 -110.9770 66° East 426 490 37,000  Level FlightAware
04:12PM 42.7130 -110.9020 66° East 426 490 37,000  Level FlightAware
04:13PM 42.7370 -110.8270 66° East 426 490 37,000  Level FlightAware
04:13PM 42.7630 -110.7500 65° Northeast 426 490 37,000  Level FlightAware
04:14PM 42.7870 -110.6750 66° East 426 490 37,000  Level FlightAware
04:15PM 42.8120 -110.6000 66° East 426 490 37,000  Level FlightAware
04:15PM 42.8360 -110.5250 66° East 426 490 37,000  Level FlightAware
04:16PM 42.8610 -110.4500 66° East 426 490 37,000  Level FlightAware
04:16PM 42.8850 -110.3750 66° East 426 490 37,000  Level FlightAware
04:17PM 42.9100 -110.2990 66° East 426 490 37,000  Level FlightAware
04:18PM 42.9340 -110.2240 66° East 426 490 37,000  Level FlightAware
04:19PM 43.0381 -109.8333 66° East 420 483 37,000  Level Salt Lake Center
04:20PM 43.0828 -109.6864 67° East 420 483 37,000  Level Salt Lake Center
04:21PM 43.1269 -109.5403 67° East 418 481 37,000  Level Salt Lake Center
04:22PM 43.1719 -109.3953 67° East 415 478 37,000  Level Salt Lake Center
04:23PM 43.2156 -109.2464 68° East 420 483 37,000  Level Salt Lake Center
04:24PM 43.2586 -109.0994 68° East 419 482 37,000  Level Salt Lake Center
04:25PM 43.3006 -108.9494 69° East 420 483 37,000  Level Salt Lake Center
04:26PM 43.3511 -108.7750 68° East 415 478 37,000  Level Salt Lake Center
04:27PM 43.3942 -108.6297 68° East 411 473 37,000  Level Salt Lake Center
04:28PM 43.4367 -108.4833 68° East 412 474 37,000  Level Salt Lake Center
04:29PM 43.4786 -108.3361 69° East 415 478 37,000  Level Salt Lake Center
04:30PM 43.5203 -108.1875 69° East 418 481 37,000  Level Salt Lake Center
04:31PM 43.5625 -108.0392 69° East 418 481 37,000  Level Salt Lake Center
04:37PM 43.7940 -107.2030 69° East 417 480 37,000  Level FlightAware
04:37PM 43.8230 -107.0970 69° East 417 480 37,000  Level FlightAware
04:38PM 43.8440 -107.0210 69° East 417 480 37,000  Level FlightAware
04:39PM 43.8650 -106.9440 69° East 417 480 37,000  Level FlightAware
04:39PM 43.8870 -106.8660 69° East 417 480 37,000  Level FlightAware
04:40PM 43.9070 -106.7930 69° East 417 480 37,000  Level FlightAware
04:40PM 43.9280 -106.7170 69° East 417 480 37,000  Level FlightAware
04:41PM 43.9510 -106.6360 68° East 417 480 37,000  Level FlightAware
04:42PM 43.9720 -106.5590 69° East 417 480 37,000  Level FlightAware
04:42PM 43.9930 -106.4830 69° East 417 480 37,000  Level FlightAware
04:43PM 44.0150 -106.4040 69° East 417 480 37,000  Level FlightAware
04:43PM 44.0360 -106.3270 69° East 417 480 37,000  Level FlightAware
04:44PM 44.0570 -106.2510 69° East 417 480 37,000  Level FlightAware
04:45PM 44.0790 -106.1720 69° East 417 480 37,000  Level FlightAware
04:45PM 44.1000 -106.0950 69° East 417 480 37,000  Level FlightAware
04:46PM 44.1210 -106.0180 69° East 417 480 37,000  Level FlightAware
04:46PM 44.1430 -105.9400 69° East 417 480 37,000 1,260 Level FlightAware
04:47PM 44.0044 -105.5192 69° East 433 498 39,000 960 Climbing Denver Center
04:48PM 44.0047 -105.3297 90° East 437 503 39,000 180 Level Denver Center
04:49PM 44.0033 -105.1700 91° East 435 501 39,400 240 Climbing Denver Center
04:50PM 44.0025 -104.9750 90° East 445 512 39,600 120 Climbing Denver Center
04:51PM 44.0022 -104.8028 90° East 457 526 39,700 180 Climbing Denver Center
04:53PM 44.0008 -104.6303 91° East 464 534 40,000 120 Climbing Denver Center
04:54PM 43.9989 -104.4342 91° East 457 526 40,000  Level Denver Center
04:55PM 43.9975 -104.2689 91° East 449 517 40,000  Level Denver Center
04:56PM 43.9947 -104.0731 91° East 453 521 40,000  Level Denver Center
04:57PM 43.9936 -103.9072 90° East 449 517 40,000  Level Denver Center
04:58PM 43.9903 -103.7381 92° East 454 522 40,000  Level Denver Center
04:59PM 43.9867 -103.5444 91° East 449 517 40,000  Level Denver Center
05:00PM 43.9850 -103.3775 91° East 452 520 40,000  Level Denver Center
05:01PM 43.9817 -103.1853 91° East 448 516 40,000  Level Denver Center
05:02PM 43.9833 -103.0169 89° East 459 528 40,000  Level Denver Center
05:03PM 44.0261 -102.8658 68° East 448 516 40,000  Level Denver Center
05:04PM 44.0839 -102.6956 65° Northeast 445 512 40,000  Level Denver Center
05:05PM 44.1369 -102.5369 65° Northeast 450 518 40,000  Level Denver Center
05:06PM 44.1903 -102.3778 65° Northeast 455 524 40,000  Level Denver Center
05:07PM 44.2431 -102.2178 65° Northeast 455 524 40,000  Level Denver Center
05:08PM 44.2947 -102.0556 66° East 457 526 40,000  Level Denver Center
05:09PM 44.3486 -101.8936 65° Northeast 461 531 40,000  Level Denver Center
05:10PM 44.4006 -101.7283 66° East 464 534 40,000  Level Denver Center
05:11PM 44.4414 -101.5967 66° East 464 534 40,000  Level Minneapolis Center
05:12PM 44.4942 -101.4319 66° East 465 535 40,000  Level Minneapolis Center
05:13PM 44.5408 -101.2667 68° East 462 532 40,000 -180 Level Minneapolis Center
05:14PM 44.5578 -101.0925 82° East 454 522 39,700 -540 Descending Minneapolis Center
05:15PM 44.5822 -100.8867 80° East 450 518 39,000 -360 Descending Minneapolis Center
05:16PM 44.6019 -100.7144 81° East 449 517 39,000  Level Minneapolis Center
05:17PM 44.6222 -100.5417 81° East 450 518 39,000  Level Minneapolis Center
05:18PM 44.6411 -100.3683 81° East 453 521 39,000  Level Minneapolis Center
05:19PM 44.6608 -100.1936 81° East 456 525 39,000  Level Minneapolis Center
05:20PM 44.6797 -100.0189 81° East 457 526 39,000  Level Minneapolis Center
05:21PM 44.6983 -99.8436 81° East 459 528 39,000  Level Minneapolis Center
05:22PM 44.7214 -99.6325 81° East 460 529 39,000  Level Minneapolis Center
05:27PM 44.8210 -98.6460 81° East 464 534 39,000  Level FlightAware
05:28PM 44.8290 -98.5540 83° East 465 535 39,000  Level FlightAware
05:29PM 44.8410 -98.4280 82° East 466 536 39,000  Level FlightAware
05:29PM 44.8510 -98.3260 82° East 466 536 39,000  Level FlightAware
05:30PM 44.8610 -98.2150 83° East 464 534 39,000  Level FlightAware
05:30PM 44.8710 -98.1030 83° East 462 532 39,000  Level FlightAware
05:31PM 44.8800 -98.0120 82° East 461 531 39,000  Level FlightAware
05:32PM 44.8890 -97.9010 83° East 460 529 39,000  Level FlightAware
05:32PM 44.8990 -97.7930 83° East 460 529 39,000  Level FlightAware
05:33PM 44.9090 -97.6840 83° East 461 531 39,000  Level FlightAware
05:33PM 44.9160 -97.5950 84° East 461 531 39,000  Level FlightAware
05:34PM 44.9260 -97.4820 83° East 463 533 39,000  Level FlightAware
05:34PM 44.9340 -97.3890 83° East 464 534 39,000  Level FlightAware
05:35PM 44.9430 -97.2790 83° East 464 534 39,000  Level FlightAware
05:36PM 44.9520 -97.1700 83° East 464 534 39,000  Level FlightAware
05:36PM 44.9610 -97.0590 83° East 464 534 39,000  Level FlightAware
05:37PM 44.9690 -96.9590 84° East 462 532 39,000  Level FlightAware
05:37PM 44.9780 -96.8500 83° East 463 533 39,000  Level FlightAware
05:38PM 44.9860 -96.7540 83° East 461 531 39,000  Level FlightAware
05:39PM 44.9940 -96.6470 84° East 461 531 39,000  Level FlightAware
05:39PM 45.0020 -96.5410 84° East 463 533 39,000  Level FlightAware
05:40PM 45.0100 -96.4320 84° East 464 534 39,000  Level FlightAware
05:40PM 45.0190 -96.3220 83° East 464 534 39,000  Level FlightAware
05:41PM 45.0260 -96.2250 84° East 464 534 39,000  Level FlightAware
05:41PM 45.0340 -96.1180 84° East 463 533 39,000  Level FlightAware
05:42PM 45.0420 -96.0080 84° East 463 533 39,000  Level FlightAware
05:43PM 45.0490 -95.9070 84° East 463 533 39,000  Level FlightAware
05:43PM 45.0570 -95.7940 84° East 463 533 39,000  Level FlightAware
05:44PM 45.0640 -95.6960 84° East 463 533 39,000  Level FlightAware
05:44PM 45.0710 -95.5900 85° East 464 534 39,000  Level FlightAware
05:45PM 45.0780 -95.4810 85° East 467 537 39,000  Level FlightAware
05:46PM 45.0860 -95.3670 84° East 470 541 39,000  Level FlightAware
05:46PM 45.0930 -95.2690 84° East 471 542 39,000  Level FlightAware
05:47PM 45.0990 -95.1640 85° East 472 543 39,000  Level FlightAware
05:47PM 45.1070 -95.0500 84° East 473 544 39,000  Level FlightAware
05:48PM 45.1130 -94.9520 85° East 474 545 39,000  Level FlightAware
05:48PM 45.1200 -94.8380 85° East 475 547 39,000  Level FlightAware
05:49PM 45.1270 -94.7270 85° East 475 547 39,000  Level FlightAware
05:50PM 45.1330 -94.6210 85° East 476 548 39,000  Level FlightAware
05:50PM 45.1400 -94.5080 85° East 478 550 39,000  Level FlightAware
05:51PM 45.1460 -94.4060 85° East 477 549 39,000  Level FlightAware
05:51PM 45.1520 -94.2920 86° East 475 547 39,000  Level FlightAware
05:52PM 45.1580 -94.1860 85° East 473 544 39,000  Level FlightAware
05:53PM 45.1640 -94.0810 85° East 473 544 39,000  Level FlightAware
05:53PM 45.1690 -93.9830 86° East 472 543 39,000  Level FlightAware
05:54PM 45.1740 -93.8870 86° East 472 543 39,000  Level FlightAware
05:54PM 45.1800 -93.7750 86° East 473 544 39,000  Level FlightAware
05:55PM 45.1860 -93.6640 86° East 475 547 39,000  Level FlightAware
05:55PM 45.1920 -93.5540 86° East 477 549 39,000  Level FlightAware
05:56PM 45.1970 -93.4550 86° East 480 552 39,000  Level FlightAware
05:57PM 45.2020 -93.3400 86° East 481 554 39,000 300 Level FlightAware
05:57PM 45.2080 -93.2270 86° East 480 552 39,400 840 Climbing FlightAware
05:58PM 45.2130 -93.1240 86° East 476 548 40,000 480 Climbing FlightAware
05:58PM 45.2180 -93.0090 86° East 475 547 40,000  Level FlightAware
05:59PM 45.2230 -92.9020 86° East 481 554 40,000  Level FlightAware
05:59PM 45.2270 -92.7950 87° East 484 557 40,000  Level FlightAware
06:00PM 45.2320 -92.6870 86° East 486 559 40,000  Level FlightAware
06:01PM 45.2370 -92.5670 87° East 486 559 40,000  Level FlightAware
06:01PM 45.2420 -92.4530 86° East 486 559 40,000  Level FlightAware
06:02PM 45.2470 -92.3400 86° East 485 558 40,000  Level FlightAware
06:02PM 45.2500 -92.2420 87° East 485 558 40,000  Level FlightAware
06:03PM 45.2550 -92.1230 87° East 485 558 40,000  Level FlightAware
06:04PM 45.2590 -92.0180 87° East 483 556 40,000  Level FlightAware
06:04PM 45.2630 -91.8960 87° East 482 555 40,000  Level FlightAware
06:05PM 45.2670 -91.7940 87° East 482 555 40,000  Level FlightAware
06:05PM 45.2710 -91.6830 87° East 480 552 40,000  Level FlightAware
06:06PM 45.2740 -91.5680 88° East 480 552 40,000  Level FlightAware
06:06PM 45.2780 -91.4570 87° East 480 552 40,000  Level FlightAware
06:07PM 45.2810 -91.3570 88° East 480 552 40,000  Level FlightAware
06:08PM 45.2850 -91.2420 87° East 480 552 40,000  Level FlightAware
06:08PM 45.2880 -91.1320 88° East 480 552 40,000  Level FlightAware
06:09PM 45.2910 -91.0160 88° East 481 554 40,000  Level FlightAware
06:09PM 45.2940 -90.9130 88° East 481 554 40,000  Level FlightAware
06:10PM 45.2970 -90.8020 88° East 482 555 40,000  Level FlightAware
06:11PM 45.3000 -90.6940 88° East 482 555 40,000  Level FlightAware
06:11PM 45.3030 -90.5300 88° East 484 557 40,000  Level FlightAware
06:12PM 45.3060 -90.4270 88° East 486 559 40,000  Level FlightAware
06:13PM 45.3080 -90.3180 88° East 488 562 40,000  Level FlightAware
06:13PM 45.3110 -90.2120 88° East 489 563 40,000  Level FlightAware
06:14PM 45.3130 -90.0890 89° East 490 564 40,000  Level FlightAware
06:14PM 45.3150 -89.9700 89° East 491 565 40,000  Level FlightAware
06:15PM 45.3180 -89.8370 88° East 492 566 40,000  Level FlightAware
06:16PM 45.3190 -89.7380 89° East 492 566 40,000  Level FlightAware
06:16PM 45.3210 -89.6230 89° East 493 567 40,000  Level FlightAware
06:17PM 45.3230 -89.5020 89° East 493 567 40,000  Level FlightAware
06:17PM 45.3250 -89.3930 88° East 494 568 40,000  Level FlightAware
06:18PM 45.3260 -89.2680 89° East 494 568 40,000  Level FlightAware
06:19PM 45.3270 -89.1540 89° East 494 568 40,000  Level FlightAware
06:19PM 45.3290 -89.0490 88° East 495 570 40,000  Level FlightAware
06:20PM 45.3300 -88.9280 89° East 495 570 40,000  Level FlightAware
06:20PM 45.3310 -88.8250 89° East 494 568 40,000  Level FlightAware
06:21PM 45.3320 -88.7050 89° East 492 566 40,000  Level FlightAware
06:21PM 45.3330 -88.5890 89° East 491 565 40,000  Level FlightAware
06:22PM 45.3330 -88.4860 90° East 491 565 40,000  Level FlightAware
06:23PM 45.3340 -88.3840 89° East 491 565 40,000  Level FlightAware
06:23PM 45.3350 -88.2830 89° East 491 565 40,000  Level FlightAware
06:24PM 45.3350 -88.1550 90° East 493 567 40,000  Level FlightAware
06:24PM 45.3350 -88.0300 90° East 496 571 40,000  Level FlightAware
06:25PM 45.3350 -87.9170 90° East 499 574 40,000  Level FlightAware
06:26PM 45.3350 -87.7620 90° East 501 577 40,000  Level FlightAware
06:26PM 45.3350 -87.6430 90° East 504 580 40,000  Level FlightAware
06:27PM 45.3350 -87.5300 90° East 507 583 40,000  Level FlightAware
06:28PM 45.3340 -87.3700 90° East 508 585 40,000  Level FlightAware
06:28PM 45.3330 -87.2530 91° East 510 587 40,000  Level FlightAware
06:29PM 45.3330 -87.1300 90° East 511 588 40,000  Level FlightAware
06:29PM 45.3330 -87.0280 90° East 511 588 40,000  Level FlightAware
06:30PM 45.3330 -86.9250 90° East 511 588 40,000  Level FlightAware
06:31PM 45.3300 -86.7790 92° East 514 592 40,000  Level FlightAware
06:31PM 45.3290 -86.6500 91° East 515 593 40,000  Level FlightAware
06:32PM 45.3270 -86.5230 91° East 515 593 40,000  Level FlightAware
06:32PM 45.3260 -86.4110 91° East 515 593 40,000  Level FlightAware
06:33PM 45.3240 -86.2570 91° East 514 592 40,000  Level FlightAware
06:34PM 45.3220 -86.1370 91° East 514 592 40,000  Level FlightAware
06:34PM 45.3200 -86.0280 91° East 516 594 40,000  Level FlightAware
06:35PM 45.3180 -85.8990 91° East 519 597 40,000  Level FlightAware
06:36PM 45.3160 -85.7810 91° East 521 600 40,000  Level FlightAware
06:36PM 45.3140 -85.6680 91° East 522 601 40,000  Level FlightAware
06:37PM 45.3120 -85.5470 91° East 524 603 40,000  Level FlightAware
06:37PM 45.3090 -85.4230 92° East 526 605 40,000  Level FlightAware
06:38PM 45.3060 -85.2730 92° East 528 608 40,000  Level FlightAware
06:39PM 45.3030 -85.1640 92° East 530 610 40,000  Level FlightAware
06:39PM 45.3000 -85.0070 92° East 533 613 40,000  Level FlightAware
06:40PM 45.2950 -84.8410 92° East 536 617 40,000  Level FlightAware
06:41PM 45.2920 -84.7130 92° East 536 617 40,000  Level FlightAware
06:41PM 45.2890 -84.6000 92° East 536 617 40,000  Level FlightAware
06:42PM 45.2850 -84.4740 93° East 535 616 40,000  Level FlightAware
06:42PM 45.2820 -84.3570 92° East 534 615 40,000  Level FlightAware
06:43PM 45.2770 -84.2290 93° East 532 612 40,000  Level FlightAware
06:44PM 45.2730 -84.0980 92° East 529 609 40,000  Level FlightAware
06:44PM 45.2700 -83.9850 92° East 525 604 40,000  Level FlightAware
06:45PM 45.2660 -83.8700 93° East 522 601 40,000  Level FlightAware
06:45PM 45.2610 -83.7410 93° East 520 598 40,000  Level FlightAware
06:46PM 45.2570 -83.6320 93° East 518 596 40,000  Level FlightAware
06:46PM 45.2520 -83.5090 93° East 517 595 40,000  Level FlightAware
06:47PM 45.2480 -83.3900 93° East 516 594 40,000  Level FlightAware
06:48PM 45.2430 -83.2680 93° East 514 592 40,000  Level FlightAware
06:48PM 45.2390 -83.1590 93° East 515 593 40,000  Level FlightAware
06:49PM 45.2340 -83.0410 93° East 515 593 40,000  Level FlightAware
06:49PM 45.2290 -82.9230 93° East 515 593 40,000  Level FlightAware
06:50PM 45.2230 -82.7950 94° East 516 594 40,000  Level FlightAware
06:51PM 45.2180 -82.6750 93° East 516 594 40,000 -120 Level FlightAware
06:51PM 45.2130 -82.5770 94° East 515 593 39,900 -840 Descending FlightAware
06:52PM 45.2020 -82.4580 97° East 520 598 39,100 -780 Descending FlightAware
06:52PM 45.1770 -82.3310 106° East 521 600 39,000 -120 Descending FlightAware
06:53PM 45.1540 -82.2280 108° East 521 600 39,000  Level FlightAware
06:53PM 45.1290 -82.1130 107° East 520 598 39,000  Level FlightAware
06:54PM 45.1030 -81.9990 108° East 520 598 39,000  Level FlightAware
06:55PM 45.0780 -81.8890 108° East 520 598 39,000  Level FlightAware
06:55PM 45.0520 -81.7730 108° East 520 598 39,000  Level FlightAware
06:56PM 45.0230 -81.6490 108° East 519 597 39,000  Level FlightAware
06:56PM 45.0000 -81.5450 107° East 521 600 39,000  Level FlightAware
06:57PM 44.9750 -81.4380 108° East 520 598 39,000  Level FlightAware
06:58PM 44.9480 -81.3190 108° East 519 597 39,000  Level FlightAware
06:58PM 44.9210 -81.2030 108° East 519 597 39,000  Level FlightAware
06:59PM 44.8960 -81.0970 108° East 519 597 39,000  Level FlightAware
06:59PM 44.8680 -80.9780 108° East 519 597 39,000  Level FlightAware
07:00PM 44.8400 -80.8600 108° East 519 597 39,000  Level FlightAware
07:00PM 44.8160 -80.7590 108° East 519 597 39,000  Level FlightAware
07:01PM 44.7880 -80.6400 108° East 519 597 39,000  Level FlightAware
07:02PM 44.7610 -80.5280 109° East 520 598 39,000  Level FlightAware
07:02PM 44.7360 -80.4230 108° East 520 598 39,000  Level FlightAware
07:03PM 44.7090 -80.3120 109° East 520 598 39,000  Level FlightAware
07:03PM 44.6810 -80.1970 109° East 520 598 39,000  Level FlightAware
07:04PM 44.6520 -80.0770 109° East 520 598 39,000  Level FlightAware
07:05PM 44.6230 -79.9610 109° East 520 598 39,000  Level FlightAware
07:05PM 44.5980 -79.8570 109° East 520 598 39,000  Level FlightAware
07:06PM 44.5700 -79.7470 110° East 520 598 39,000  Level FlightAware
07:06PM 44.5400 -79.6320 110° East 519 597 39,000  Level FlightAware
07:07PM 44.5130 -79.5280 110° East 519 597 39,000  Level FlightAware
07:07PM 44.4840 -79.4200 111° Southeast 516 594 39,000  Level FlightAware
07:08PM 44.4520 -79.2990 110° East 516 594 39,000  Level FlightAware
07:09PM 44.4260 -79.2030 111° Southeast 515 593 39,000  Level FlightAware
07:09PM 44.3960 -79.0880 110° East 514 592 39,000  Level FlightAware
07:10PM 44.3650 -78.9740 111° Southeast 513 590 39,000  Level FlightAware
07:10PM 44.3390 -78.8750 110° East 513 590 39,000  Level FlightAware
07:11PM 44.3090 -78.7650 111° Southeast 514 592 39,000  Level FlightAware
07:12PM 44.2790 -78.6520 110° East 515 593 39,000  Level FlightAware
07:12PM 44.2480 -78.5380 111° Southeast 516 594 39,000  Level FlightAware
07:13PM 44.2210 -78.4400 111° Southeast 518 596 39,000  Level FlightAware
07:13PM 44.1900 -78.3290 111° Southeast 519 597 39,000  Level FlightAware
07:14PM 44.1580 -78.2130 111° Southeast 519 597 39,000  Level FlightAware
07:14PM 44.1310 -78.1140 111° Southeast 519 597 39,000  Level FlightAware
07:15PM 44.0990 -78.0010 111° Southeast 521 600 39,000  Level FlightAware
07:16PM 44.0680 -77.8900 111° Southeast 522 601 39,000  Level FlightAware
07:16PM 44.0350 -77.7740 112° Southeast 524 603 39,000  Level FlightAware
07:17PM 44.0090 -77.6800 111° Southeast 523 602 39,000  Level FlightAware
07:17PM 43.9760 -77.5660 112° Southeast 523 602 39,000  Level FlightAware
07:18PM 43.9430 -77.4480 111° Southeast 523 602 39,000  Level FlightAware
07:19PM 43.9150 -77.3490 111° Southeast 523 602 39,000  Level FlightAware
07:19PM 43.8820 -77.2350 112° Southeast 524 603 39,000  Level FlightAware
07:20PM 43.8490 -77.1230 112° Southeast 523 602 39,000  Level FlightAware
07:20PM 43.8210 -77.0250 112° Southeast 523 602 39,000  Level FlightAware
07:21PM 43.7880 -76.9130 112° Southeast 524 603 39,000  Level FlightAware
07:22PM 43.7560 -76.8040 112° Southeast 523 602 39,000  Level FlightAware
07:22PM 43.7210 -76.7160 119° Southeast 517 595 39,000  Level FlightAware
07:23PM 43.6710 -76.6370 131° Southeast 510 587 39,000  Level FlightAware
07:23PM 43.6100 -76.5560 136° Southeast 508 585 39,000  Level FlightAware
07:24PM 43.5490 -76.4760 136° Southeast 507 583 39,000  Level FlightAware
07:24PM 43.4950 -76.4050 136° Southeast 507 583 39,000  Level FlightAware
07:25PM 43.4300 -76.3200 136° Southeast 505 581 39,000  Level FlightAware
07:26PM 43.3690 -76.2400 136° Southeast 506 582 39,000  Level FlightAware
07:26PM 43.3150 -76.1700 137° Southeast 505 581 39,000  Level FlightAware
07:27PM 43.2540 -76.0900 136° Southeast 505 581 39,000  Level FlightAware
07:27PM 43.1960 -76.0140 136° Southeast 502 578 39,000  Level FlightAware
07:28PM 43.1340 -75.9340 137° Southeast 500 575 39,000  Level FlightAware
07:28PM 43.0820 -75.8670 137° Southeast 500 575 39,000  Level FlightAware
07:29PM 43.0180 -75.7840 137° Southeast 499 574 39,000  Level FlightAware
07:30PM 42.9650 -75.7160 137° Southeast 499 574 39,000  Level FlightAware
07:30PM 42.9020 -75.6350 137° Southeast 500 575 39,000  Level FlightAware
07:31PM 42.8440 -75.5600 137° Southeast 500 575 39,000  Level FlightAware
07:31PM 42.7820 -75.4810 137° Southeast 502 578 39,000  Level FlightAware
07:32PM 42.7260 -75.4110 137° Southeast 503 579 39,000  Level FlightAware
07:32PM 42.6660 -75.3340 137° Southeast 503 579 39,000  Level FlightAware
07:33PM 42.6030 -75.2540 137° Southeast 503 579 39,000  Level FlightAware
07:34PM 42.5410 -75.1770 138° Southeast 503 579 39,000  Level FlightAware
07:34PM 42.4850 -75.1050 137° Southeast 504 580 39,000  Level FlightAware
07:35PM 42.4250 -75.0300 137° Southeast 503 579 39,000 -300 Level FlightAware
07:35PM 42.3760 -74.9680 137° Southeast 500 575 38,700 -1,680 Descending FlightAware
07:36PM 42.3110 -74.8870 137° Southeast 508 585 37,100 -2,520 Descending FlightAware
07:37PM 42.2460 -74.8070 138° Southeast 507 583 35,600 -2,760 Descending FlightAware
07:37PM 42.1770 -74.7210 137° Southeast 511 588 33,600 -3,000 Descending FlightAware
07:38PM 42.1140 -74.6430 137° Southeast 515 593 31,800 -3,300 Descending FlightAware
07:38PM 42.0480 -74.5610 137° Southeast 518 596 29,600 -3,000 Descending FlightAware
07:39PM 41.9950 -74.4940 137° Southeast 517 595 28,400 -1,980 Descending FlightAware
07:40PM 41.9350 -74.4200 137° Southeast 510 587 27,400 -1,920 Descending FlightAware
07:40PM 41.8640 -74.3620 149° Southeast 515 593 26,200 -2,040 Descending FlightAware
07:41PM 41.7850 -74.3120 155° Southeast 510 587 25,000 -1,920 Descending FlightAware
07:41PM 41.7070 -74.2630 155° Southeast 498 573 23,900 -1,860 Descending FlightAware
07:42PM 41.6410 -74.2220 155° Southeast 486 559 22,900 -1,800 Descending FlightAware
07:42PM 41.5770 -74.1830 155° Southeast 475 547 22,000 -1,860 Descending FlightAware
07:43PM 41.5000 -74.1340 155° Southeast 466 536 20,700 -1,560 Descending FlightAware
07:44PM 41.4240 -74.0920 157° South 446 513 20,000 -720 Descending FlightAware
07:44PM 41.4030 -74.0870 170° South 444 511 20,100  Climbing FlightAware
07:44PM 41.3440 -74.1010 190° South 433 498 20,000 -120 Descending FlightAware
07:45PM 41.2810 -74.1460 208° Southwest 432 497 20,000  Level FlightAware
07:45PM 41.2430 -74.1610 197° South 439 505 20,000  Level FlightAware
07:46PM 41.2030 -74.1650 184° South 447 514 20,000 -240 Level FlightAware
07:46PM 41.1300 -74.1580 176° South 448 516 19,800 -840 Descending FlightAware
07:47PM 41.0640 -74.1510 175° South 439 505 19,100 -720 Descending FlightAware
07:47PM 40.9930 -74.1440 176° South 441 507 19,000 -120 Descending FlightAware
07:48PM 40.9470 -74.1340 171° South 441 507 19,000  Level FlightAware
07:48PM 40.9090 -74.1070 152° Southeast 425 489 19,000  Level FlightAware
07:49PM 40.8560 -74.0580 145° Southeast 376 433 19,000 -420 Level FlightAware
07:49PM 40.7980 -74.0330 162° South 354 407 18,500 -960 Descending FlightAware
07:50PM 40.7480 -74.0120 162° South 341 392 17,900 -1,440 Descending FlightAware
07:50PM 40.6940 -73.9900 163° South 337 388 16,900 -1,620 Descending FlightAware
07:51PM 40.6460 -73.9710 163° South 330 380 16,100 -1,320 Descending FlightAware
07:52PM 40.5950 -73.9510 163° South 321 369 15,400 -1,620 Descending FlightAware
07:52PM 40.5390 -73.9300 164° South 321 369 14,200 -1,680 Descending FlightAware
07:53PM 40.4960 -73.9140 164° South 319 367 13,500 -1,500 Descending FlightAware
07:53PM 40.4400 -73.8930 164° South 317 365 12,500 -1,620 Descending FlightAware
07:54PM 40.4020 -73.8770 162° South 317 365 11,800 -1,740 Descending FlightAware
07:54PM 40.3890 -73.8650 145° Southeast 314 361 11,400 -1,920 Descending FlightAware
07:54PM 40.3810 -73.8520 129° Southeast 312 359 11,100 -2,520 Descending FlightAware
07:54PM 40.3760 -73.8380 115° Southeast 311 358 10,700 -2,580 Descending FlightAware
07:55PM 40.3720 -73.8170 104° East 308 354 10,300 -2,520 Descending FlightAware
07:55PM 40.3790 -73.7620 80° East 301 346 9,000 -2,580 Descending FlightAware
07:55PM 40.3850 -73.7270 77° East 298 343 8,200 -2,100 Descending FlightAware
07:56PM 40.3890 -73.7000 79° East 294 338 7,700 -2,160 Descending FlightAware
07:56PM 40.3970 -73.6530 77° East 289 333 6,600 -2,400 Descending FlightAware
07:56PM 40.4030 -73.6180 77° East 285 328 5,900 -2,280 Descending FlightAware
07:57PM 40.4070 -73.5970 76° East 283 326 5,400 -2,400 Descending FlightAware
07:57PM 40.4110 -73.5850 66° East 278 320 5,100 -2,040 Descending FlightAware
07:57PM 40.4180 -73.5750 47° Northeast 275 316 4,900 -1,440 Descending FlightAware
07:57PM 40.4260 -73.5660 41° Northeast 273 314 4,700 -1,200 Descending FlightAware
07:57PM 40.4370 -73.5540 40° Northeast 271 312 4,500 -1,200 Descending FlightAware
07:58PM 40.4570 -73.5340 37° Northeast 270 311 4,100 -840 Descending FlightAware
07:58PM 40.4820 -73.5090 37° Northeast 272 313 3,900 -300 Descending FlightAware
07:58PM 40.5010 -73.4890 39° Northeast 272 313 3,900  Level FlightAware
07:59PM 40.5230 -73.4670 37° Northeast 270 311 3,900  Level FlightAware
07:59PM 40.5430 -73.4470 37° Northeast 269 310 3,900  Level FlightAware
07:59PM 40.5620 -73.4270 39° Northeast 270 311 3,900  Level FlightAware
08:00PM 40.5850 -73.4040 37° Northeast 270 311 3,900  Level FlightAware
08:00PM 40.6050 -73.3850 36° Northeast 270 311 3,900  Level FlightAware
08:00PM 40.6150 -73.3800 21° North 267 307 3,900  Level FlightAware
08:00PM 40.6210 -73.3790 North 266 306 3,900  Level FlightAware
08:01PM 40.6460 -73.3890 343° North 263 303 3,900  Level FlightAware
08:01PM 40.6520 -73.3950 323° Northwest 264 304 3,900  Level FlightAware
08:01PM 40.6720 -73.4190 318° Northwest 265 305 3,900  Level FlightAware
08:01PM 40.6870 -73.4440 308° West 262 302 3,900 -180 Level FlightAware
08:02PM 40.7020 -73.4710 306° West 260 299 3,800 -780 Descending FlightAware
08:02PM 40.7150 -73.4940 307° West 258 297 3,400 -1,320 Descending FlightAware
08:02PM 40.7330 -73.5250 307° West 258 297 2,900 -840 Descending FlightAware
08:03PM 40.7470 -73.5510 305° West 258 297 2,800 -840 Descending FlightAware
08:03PM 40.7590 -73.5830 296° West 248 285 2,300 -1,020 Descending FlightAware
08:03PM 40.7690 -73.6070 299° West 238 274 2,100 -660 Descending FlightAware
08:04PM 40.7720 -73.6210 286° West 234 269 2,000 -900 Descending FlightAware
08:04PM 40.7720 -73.6260 270° West 232 267 1,900 -240 Descending FlightAware
08:04PM 40.7640 -73.6550 250° West 218 251 1,900  Level FlightAware
08:04PM 40.7610 -73.6590 225° Southwest 216 249 1,900  Level FlightAware
08:04PM 40.7550 -73.6660 221° Southwest 210 242 1,900  Level FlightAware
08:05PM 40.7400 -73.6800 215° Southwest 192 221 1,900 -420 Level FlightAware
08:05PM 40.7220 -73.6950 212° Southwest 177 204 1,600 -840 Descending FlightAware
08:05PM 40.7140 -73.7010 210° Southwest 169 194 1,400 -780 Descending FlightAware
08:06PM 40.7020 -73.7110 212° Southwest 149 171 1,200 -720 Descending FlightAware
08:06PM 40.6890 -73.7210 210° Southwest 132 152 900 -720 Descending FlightAware
08:06PM 40.6780 -73.7290 209° Southwest 133 153 700 -780 Descending FlightAware
08:07PM 40.6680 -73.7370 211° Southwest 132 152 400 -780 Descending FlightAware
08:07PM 40.6570 -73.7460 212° Southwest 133 153 200 -660 Descending FlightAware
08:07PM 40.6440 -73.7560 210° Southwest 132 152 -540 Descending FlightAware
08:08PM 40.6380 -73.7600 207° Southwest 115 132  Level FlightAware